Time;durP1;ratioP1;P1;durP2;ratioP2;P2;SDS_P1;SDS_P2;PMS_P1;PMS_P2;Temp;Humidity;BMP_temperature;BMP_pressure;BME280_temperature;BME280_humidity;BME280_pressure;Samples;Min_cycle;Max_cycle;Signal;HPM_P1;HPM_P2
2022/06/18 00:01:58;;;;;;;10.15;4.68;;;;;;;29.08;37.00;101358.69;5063710;28;20056;-67
2022/06/18 00:04:26;;;;;;;9.30;5.53;;;;;;;28.96;37.54;101347.88;5057048;28;20382;-70
2022/06/18 00:07:05;;;;;;;8.90;4.75;;;;;;;28.90;37.43;101341.06;5075161;28;20040;-68
2022/06/18 00:09:41;;;;;;;8.63;4.53;;;;;;;28.94;37.40;101341.81;5084981;28;20081;-68
2022/06/18 00:15:11;;;;;;;12.32;5.75;;;;;;;28.83;37.70;101336.28;5074764;28;20060;-69
2022/06/18 00:17:38;;;;;;;12.82;9.02;;;;;;;28.72;38.15;101333.56;5081821;28;20056;-67
2022/06/18 00:20:06;;;;;;;12.57;6.35;;;;;;;28.75;37.86;101334.72;5087316;28;20055;-66
2022/06/18 00:22:33;;;;;;;8.27;4.38;;;;;;;28.76;37.91;101337.19;5078544;28;20059;-68
2022/06/18 00:25:00;;;;;;;10.50;4.03;;;;;;;28.76;37.90;101336.34;5085118;28;20044;-65
2022/06/18 00:27:28;;;;;;;10.95;4.70;;;;;;;28.50;38.54;101340.66;5086896;28;20047;-66
2022/06/18 00:29:55;;;;;;;10.40;3.38;;;;;;;28.45;38.16;101332.59;5061080;28;20590;-66
2022/06/18 00:32:22;;;;;;;6.88;3.60;;;;;;;28.43;38.61;101320.91;5065855;28;20052;-65
2022/06/18 00:34:50;;;;;;;10.18;4.10;;;;;;;28.52;38.62;101323.25;5063634;28;20044;-68
2022/06/18 00:37:25;;;;;;;7.57;3.47;;;;;;;28.60;38.34;101333.28;5057260;28;20052;-68
2022/06/18 00:39:52;;;;;;;9.93;3.33;;;;;;;28.65;38.18;101322.31;5040805;28;20051;-69
2022/06/18 00:42:29;;;;;;;7.93;3.45;;;;;;;28.61;38.13;101330.03;5076156;28;20045;-66
2022/06/18 00:45:00;;;;;;;11.77;3.47;;;;;;;28.65;37.84;101332.81;5077606;28;20410;-69
2022/06/18 00:47:46;;;;;;;10.35;3.25;;;;;;;28.64;37.72;101337.72;5056383;28;20518;-69
2022/06/18 00:50:26;;;;;;;6.80;3.70;;;;;;;28.62;37.81;101337.31;5073429;28;20068;-69
2022/06/18 00:52:57;;;;;;;7.78;3.65;;;;;;;28.51;37.87;101328.13;5089172;28;20118;-68
2022/06/18 00:55:39;;;;;;;6.20;3.13;;;;;;;28.39;37.80;101345.63;5066077;28;20056;-66
2022/06/18 00:58:15;;;;;;;10.02;3.65;;;;;;;28.54;37.80;101330.09;5057649;28;20429;-66
2022/06/18 01:00:46;;;;;;;8.45;3.00;;;;;;;28.41;37.74;101342.38;5091131;28;20041;-65
2022/06/18 01:03:21;;;;;;;5.35;2.63;;;;;;;28.49;37.79;101333.38;5074533;28;20396;-65
2022/06/18 01:05:49;;;;;;;4.80;2.35;;;;;;;28.53;37.51;101325.69;5066186;28;20060;-65
2022/06/18 01:08:18;;;;;;;8.25;2.53;;;;;;;28.52;37.57;101326.09;5078924;28;20067;-66
2022/06/18 01:10:49;;;;;;;6.47;2.58;;;;;;;28.58;37.25;101330.06;5027198;28;20051;-68
2022/06/18 01:13:19;;;;;;;5.45;2.75;;;;;;;28.64;37.00;101331.22;5064337;28;20055;-69
2022/06/18 01:15:47;;;;;;;10.10;2.67;;;;;;;28.63;37.12;101330.41;5057394;28;20154;-69
2022/06/18 01:18:16;;;;;;;7.78;3.15;;;;;;;28.61;37.17;101332.09;5038681;28;20056;-66
2022/06/18 01:20:52;;;;;;;8.45;2.92;;;;;;;28.50;37.10;101339.84;5055522;28;20056;-65
2022/06/18 01:23:55;;;;;;;16.27;3.40;;;;;;;28.60;37.25;101327.63;5040099;28;20506;-66
2022/06/18 01:26:23;;;;;;;6.43;3.00;;;;;;;28.54;37.16;101321.59;5058601;28;20086;-66
2022/06/18 01:28:50;;;;;;;5.07;3.08;;;;;;;28.54;37.10;101315.94;5050688;28;20051;-66
2022/06/18 01:31:19;;;;;;;7.20;3.10;;;;;;;28.50;37.21;101308.69;5051402;28;20041;-68
2022/06/18 01:33:49;;;;;;;5.80;3.10;;;;;;;28.39;37.49;101319.31;5059621;28;20480;-68
2022/06/18 01:36:19;;;;;;;12.25;3.67;;;;;;;28.15;37.82;101318.34;5059390;28;20507;-68
2022/06/18 01:38:47;;;;;;;8.05;3.10;;;;;;;28.32;37.41;101325.84;5052403;28;20049;-68
2022/06/18 01:44:39;;;;;;;7.80;3.42;;;;;;;28.30;37.76;101319.00;5062753;28;20047;-68
2022/06/18 01:47:14;;;;;;;8.95;2.90;;;;;;;28.21;37.85;101316.63;5055275;28;20792;-68
2022/06/18 01:50:17;;;;;;;7.50;2.90;;;;;;;27.92;38.57;101314.47;5053638;28;20423;-69
2022/06/18 01:52:53;;;;;;;6.80;3.20;;;;;;;28.14;38.13;101313.88;5021925;28;20061;-69
2022/06/18 01:55:27;;;;;;;7.13;3.08;;;;;;;28.27;37.84;101306.47;5058438;28;20044;-67
2022/06/18 01:57:58;;;;;;;7.00;2.83;;;;;;;28.23;37.71;101305.69;5084244;28;20048;-69
2022/06/18 02:00:27;;;;;;;10.88;3.10;;;;;;;28.19;38.02;101301.31;5037980;28;20053;-68
2022/06/18 02:03:02;;;;;;;9.00;2.40;;;;;;;28.08;38.08;101298.56;5050563;28;20515;-68
2022/06/18 02:05:30;;;;;;;9.57;2.63;;;;;;;27.79;38.57;101302.84;5056608;28;20049;-68
2022/06/18 02:07:58;;;;;;;8.38;2.90;;;;;;;28.03;38.46;101292.53;5065391;28;20602;-68
2022/06/18 02:10:30;;;;;;;6.63;2.33;;;;;;;28.27;37.62;101283.81;5074070;28;20048;-68
2022/06/18 02:13:01;;;;;;;6.35;2.70;;;;;;;28.08;37.82;101292.91;5029278;28;22607;-68
2022/06/18 02:15:34;;;;;;;8.15;2.63;;;;;;;27.95;38.46;101291.00;5052665;28;20055;-68
2022/06/18 02:18:05;;;;;;;6.28;2.30;;;;;;;27.98;38.25;101290.97;5082314;28;20103;-68
2022/06/18 02:20:38;;;;;;;5.38;2.28;;;;;;;27.99;38.23;101292.56;5084570;28;20487;-68
2022/06/18 02:23:05;;;;;;;3.88;2.42;;;;;;;27.87;38.67;101287.41;5068902;28;20139;-68
2022/06/18 02:25:33;;;;;;;4.18;2.20;;;;;;;27.79;38.10;101285.84;5079903;28;20044;-68
2022/06/18 02:28:15;;;;;;;7.70;2.30;;;;;;;27.73;38.28;101287.50;5082643;28;20399;-68
2022/06/18 02:30:43;;;;;;;5.85;2.40;;;;;;;27.62;38.48;101284.75;5083168;28;20124;-69
2022/06/18 02:33:23;;;;;;;4.35;2.15;;;;;;;27.68;38.08;101280.28;5059312;28;20064;-70
2022/06/18 02:35:51;;;;;;;9.20;2.10;;;;;;;27.69;38.35;101281.88;5061982;28;20045;-66
2022/06/18 02:38:20;;;;;;;4.65;2.30;;;;;;;27.72;38.22;101277.41;5065038;28;20053;-68
2022/06/18 02:40:48;;;;;;;3.63;2.15;;;;;;;27.71;37.22;101270.13;5066560;28;20579;-69
2022/06/18 02:43:17;;;;;;;6.22;2.20;;;;;;;27.74;37.25;101264.44;5054157;28;20044;-68
2022/06/18 02:45:50;;;;;;;6.47;2.10;;;;;;;27.91;37.39;101259.88;5022823;28;20052;-69
2022/06/18 02:48:18;;;;;;;6.97;2.38;;;;;;;27.94;36.96;101249.72;5087527;28;20048;-69
2022/06/18 02:50:45;;;;;;;4.38;2.10;;;;;;;27.88;36.93;101254.22;5054652;28;20060;-67
2022/06/18 02:53:14;;;;;;;5.18;2.08;;;;;;;27.75;37.33;101256.75;5045661;28;20048;-69
2022/06/18 02:55:48;;;;;;;6.45;2.20;;;;;;;27.63;37.13;101248.78;5055355;28;20404;-66
2022/06/18 02:58:20;;;;;;;7.93;2.00;;;;;;;27.71;37.13;101251.13;5040448;28;20044;-67
2022/06/18 03:00:57;;;;;;;10.40;2.30;;;;;;;27.59;37.16;101245.16;5046492;28;20052;-66
2022/06/18 03:03:28;;;;;;;5.63;2.20;;;;;;;27.63;37.43;101245.94;5057851;28;20048;-69
2022/06/18 03:05:55;;;;;;;6.88;2.30;;;;;;;27.31;37.46;101237.69;5085822;28;20041;-66
2022/06/18 03:08:26;;;;;;;12.90;2.40;;;;;;;27.04;37.88;101227.31;5059066;28;20043;-66
2022/06/18 03:13:42;;;;;;;5.32;2.38;;;;;;;27.05;38.79;101223.25;5060742;28;20395;-66
2022/06/18 03:16:12;;;;;;;11.05;2.47;;;;;;;26.97;39.14;101222.50;5083919;28;20085;-67
2022/06/18 03:18:41;;;;;;;9.57;2.50;;;;;;;27.04;38.68;101213.19;5086754;28;20074;-69
2022/06/18 03:21:30;;;;;;;8.15;2.67;;;;;;;27.20;38.52;101211.44;5066228;28;20555;-69
2022/06/18 03:23:58;;;;;;;8.20;3.10;;;;;;;26.95;39.17;101210.81;5069026;28;20055;-67
2022/06/18 03:26:26;;;;;;;8.32;2.65;;;;;;;26.87;39.39;101209.22;5088157;28;20056;-68
2022/06/18 03:28:55;;;;;;;6.18;2.40;;;;;;;26.77;39.64;101214.94;5068568;28;20060;-68
2022/06/18 03:31:23;;;;;;;6.20;2.50;;;;;;;26.78;39.97;101203.22;5048105;28;20064;-66
2022/06/18 03:33:50;;;;;;;4.65;2.40;;;;;;;26.80;39.83;101206.44;5049170;28;20045;-67
2022/06/18 03:36:19;;;;;;;5.18;2.42;;;;;;;26.74;39.73;101205.28;5058184;28;20045;-68
2022/06/18 03:38:48;;;;;;;7.07;2.83;;;;;;;26.71;40.26;101197.59;5057079;28;20044;-69
2022/06/18 03:41:17;;;;;;;8.20;2.40;;;;;;;26.90;39.76;101190.66;5039965;28;20322;-66
2022/06/18 03:43:45;;;;;;;7.00;2.30;;;;;;;26.92;39.63;101197.47;5028370;28;20053;-65
2022/06/18 03:46:15;;;;;;;5.38;2.45;;;;;;;26.85;39.98;101200.34;5059711;28;20048;-66
2022/06/18 03:49:02;;;;;;;6.25;2.33;;;;;;;26.88;39.81;101196.72;5041622;28;20053;-67
2022/06/18 03:51:33;;;;;;;5.28;2.50;;;;;;;26.84;40.06;101203.59;5033451;28;20056;-66
2022/06/18 03:54:02;;;;;;;;;;;;;;;26.64;40.67;101204.06;5062660;28;20048;-66
2022/06/18 03:56:31;;;;;;;5.90;2.65;;;;;;;26.48;41.23;101208.59;5054714;28;19925;-65
2022/06/18 03:59:00;;;;;;;6.07;2.83;;;;;;;26.53;41.77;101202.50;5088746;28;20053;-68
2022/06/18 04:01:32;;;;;;;12.27;3.08;;;;;;;26.65;41.51;101200.03;5041934;28;20055;-68
2022/06/18 04:04:03;;;;;;;6.13;2.90;;;;;;;26.51;41.94;101202.13;5062373;28;20086;-67
2022/06/18 04:06:41;;;;;;;7.50;2.92;;;;;;;26.56;41.82;101201.69;5078161;28;20044;-66
2022/06/18 04:09:27;;;;;;;8.93;2.92;;;;;;;26.56;41.74;101198.84;5064180;28;20055;-66
2022/06/18 04:11:55;;;;;;;6.53;2.90;;;;;;;26.31;42.74;101196.13;5056083;28;20048;-67
2022/06/18 04:14:23;;;;;;;5.47;2.58;;;;;;;26.19;43.06;101192.94;5040938;28;20051;-69
2022/06/18 04:16:59;;;;;;;7.43;3.03;;;;;;;26.01;43.38;101189.34;5038564;28;20053;-69
2022/06/18 04:19:26;;;;;;;9.88;3.15;;;;;;;25.96;43.73;101193.34;5042816;28;20053;-66
2022/06/18 04:21:55;;;;;;;6.53;3.00;;;;;;;26.04;43.88;101189.34;5055199;28;20055;-66
2022/06/18 04:24:33;;;;;;;7.35;3.17;;;;;;;26.30;43.03;101188.88;5046505;28;20802;-67
2022/06/18 04:27:01;;;;;;;7.53;3.22;;;;;;;26.23;43.45;101186.06;5039678;28;20049;-68
2022/06/18 04:29:28;;;;;;;6.30;3.40;;;;;;;26.38;43.40;101193.28;5073509;28;20049;-69
2022/06/18 04:31:56;;;;;;;7.47;3.33;;;;;;;26.47;42.83;101184.34;5060633;28;20048;-66
2022/06/18 04:34:23;;;;;;;8.27;3.20;;;;;;;26.17;43.55;101184.88;5079716;28;20059;-66
2022/06/18 04:37:09;;;;;;;5.95;3.08;;;;;;;25.92;44.49;101186.94;5068484;28;20052;-66
2022/06/18 04:39:52;;;;;;;8.20;3.33;;;;;;;25.96;44.10;101182.06;5058434;28;20057;-69
2022/06/18 04:42:23;;;;;;;6.50;3.42;;;;;;;25.83;44.70;101188.53;5077238;28;20052;-68
2022/06/18 04:44:52;;;;;;;9.07;3.30;;;;;;;26.11;43.75;101180.88;5059984;28;20047;-66
2022/06/18 04:47:25;;;;;;;6.68;3.30;;;;;;;26.07;44.41;101187.72;5088292;28;20044;-69
2022/06/18 04:49:54;;;;;;;7.20;3.20;;;;;;;25.96;44.40;101193.34;5058620;28;20063;-68
2022/06/18 04:52:22;;;;;;;7.03;3.65;;;;;;;26.02;44.54;101193.75;5058320;28;20052;-66
2022/06/18 04:54:58;;;;;;;7.30;3.38;;;;;;;26.20;44.29;101203.03;5068091;28;20052;-68
2022/06/18 04:57:27;;;;;;;7.07;3.00;;;;;;;26.08;44.16;101200.66;5069091;28;20412;-66
2022/06/18 04:59:56;;;;;;;10.25;4.00;;;;;;;26.15;44.08;101192.94;5057258;28;20055;-69
2022/06/18 05:02:26;;;;;;;8.43;3.25;;;;;;;26.06;44.64;101197.41;5054878;28;20056;-66
2022/06/18 05:05:16;;;;;;;9.02;3.58;;;;;;;26.15;45.01;101197.81;5085696;28;20059;-67
2022/06/18 05:08:10;;;;;;;8.25;3.28;;;;;;;26.20;44.41;101195.38;5072420;28;20056;-66
2022/06/18 05:11:06;;;;;;;10.88;3.50;;;;;;;26.40;44.11;101196.50;5008789;28;20054;-67
2022/06/18 05:13:53;;;;;;;6.88;3.40;;;;;;;26.66;44.04;101198.00;5084808;28;20613;-68
2022/06/18 05:16:28;;;;;;;9.10;3.47;;;;;;;26.60;44.21;101188.34;5047910;28;20052;-66
2022/06/18 05:18:56;;;;;;;6.65;3.15;;;;;;;26.28;44.37;101190.50;5054925;28;20048;-66
2022/06/18 05:21:24;;;;;;;9.80;3.05;;;;;;;26.44;44.23;101188.00;5055682;28;20060;-66
2022/06/18 05:23:54;;;;;;;10.63;3.25;;;;;;;26.38;44.04;101184.81;5061641;28;20073;-64
2022/06/18 05:26:23;;;;;;;11.57;3.65;;;;;;;26.52;44.11;101181.91;5066778;28;20048;-64
2022/06/18 05:28:52;;;;;;;9.82;3.67;;;;;;;26.92;43.39;101174.88;5068392;28;20059;-64
2022/06/18 05:31:19;;;;;;;11.75;3.53;;;;;;;27.09;42.69;101176.78;5058765;28;20064;-64
2022/06/18 05:33:48;;;;;;;7.90;3.17;;;;;;;26.73;43.32;101177.44;5086962;28;20055;-65
2022/06/18 05:36:19;;;;;;;10.85;3.40;;;;;;;26.71;43.54;101180.63;5028029;28;20060;-65
2022/06/18 05:38:53;;;;;;;10.65;3.38;;;;;;;26.61;43.40;101182.28;5058285;28;20060;-64
2022/06/18 05:41:21;;;;;;;6.45;2.92;;;;;;;26.60;43.56;101172.22;5040056;28;20063;-64
2022/06/18 05:43:48;;;;;;;11.43;3.95;;;;;;;26.38;43.89;101170.69;5068195;28;20051;-65
2022/06/18 05:46:15;;;;;;;10.60;3.17;;;;;;;26.51;43.16;101171.84;5058059;28;20040;-65
2022/06/18 05:48:43;;;;;;;6.43;3.03;;;;;;;26.64;43.53;101175.81;5060599;28;20059;-65
2022/06/18 05:51:11;;;;;;;8.73;3.30;;;;;;;26.93;42.54;101161.53;5080878;28;20139;-64
2022/06/18 05:53:38;;;;;;;9.35;3.30;;;;;;;27.20;42.12;101173.88;5082588;28;20052;-63
2022/06/18 05:56:24;;;;;;;12.23;3.65;;;;;;;27.27;42.00;101162.50;5061378;28;20045;-64
2022/06/18 05:59:11;;;;;;;8.35;3.30;;;;;;;27.26;41.82;101164.53;5076945;28;20059;-64
2022/06/18 06:01:41;;;;;;;5.32;3.38;;;;;;;26.99;42.47;101166.34;5055101;28;20048;-65
2022/06/18 06:04:09;;;;;;;11.00;3.25;;;;;;;27.07;42.91;101167.09;5073245;28;20052;-63
2022/06/18 06:06:40;;;;;;;8.55;3.38;;;;;;;27.03;42.63;101167.13;5055376;28;20049;-64
2022/06/18 06:09:12;;;;;;;10.23;3.58;;;;;;;27.00;42.93;101150.19;5056118;28;20037;-65
2022/06/18 06:11:40;;;;;;;11.73;3.30;;;;;;;26.99;42.94;101157.84;5081347;28;20052;-64
2022/06/18 06:14:09;;;;;;;8.85;3.90;;;;;;;27.00;42.92;101151.00;5088769;28;20515;-64
2022/06/18 06:16:37;;;;;;;8.32;3.95;;;;;;;26.89;43.32;101150.25;5072653;28;20063;-64
2022/06/18 06:19:04;;;;;;;8.68;3.85;;;;;;;26.91;42.91;101149.84;5052876;28;20056;-65
2022/06/18 06:21:32;;;;;;;7.57;3.50;;;;;;;27.01;43.11;101155.41;5070318;28;20048;-65
2022/06/18 06:23:59;;;;;;;7.32;3.35;;;;;;;27.12;43.00;101147.66;5061595;28;20044;-65
2022/06/18 06:26:30;;;;;;;7.88;3.67;;;;;;;27.32;42.37;101140.25;5070041;28;20045;-65
2022/06/18 06:28:59;;;;;;;8.50;3.53;;;;;;;27.39;42.38;101136.59;5081323;28;20045;-64
2022/06/18 06:31:26;;;;;;;10.25;4.10;;;;;;;27.40;42.04;101141.81;5078987;28;20047;-64
2022/06/18 06:33:54;;;;;;;11.30;3.55;;;;;;;27.46;41.99;101140.13;5049340;28;20081;-65
2022/06/18 06:36:21;;;;;;;6.95;3.50;;;;;;;27.37;41.74;101139.81;5073905;28;20040;-64
2022/06/18 06:38:48;;;;;;;8.00;3.63;;;;;;;27.41;41.27;101145.44;5078908;28;20055;-64
2022/06/18 06:41:20;;;;;;;8.52;3.50;;;;;;;27.61;41.05;101137.97;5072324;28;20159;-64
2022/06/18 06:43:48;;;;;;;7.13;3.05;;;;;;;27.54;40.91;101136.03;5061195;28;20048;-65
2022/06/18 06:46:17;;;;;;;10.77;3.65;;;;;;;27.65;40.52;101145.22;5054781;28;20400;-64
2022/06/18 06:48:45;;;;;;;11.88;3.50;;;;;;;27.72;40.64;101142.31;5057634;28;20071;-63
2022/06/18 06:51:18;;;;;;;9.20;3.30;;;;;;;28.00;40.39;101141.22;5068409;28;20060;-65
2022/06/18 06:53:46;;;;;;;8.98;3.65;;;;;;;28.26;41.07;101142.56;5079601;28;20060;-65
2022/06/18 06:59:02;;;;;;;9.55;3.85;;;;;;;28.15;38.82;101147.53;5081640;28;20045;-64
2022/06/18 07:01:29;;;;;;;12.82;2.80;;;;;;;28.36;39.31;101148.09;5074489;28;20061;-65
2022/06/18 07:03:57;;;;;;;7.78;3.22;;;;;;;28.45;38.48;101153.25;5062735;28;20063;-63
2022/06/18 07:06:24;;;;;;;5.57;2.95;;;;;;;28.55;38.36;101152.31;5081237;28;20057;-64
2022/06/18 07:08:52;;;;;;;6.38;2.88;;;;;;;28.94;37.49;101148.94;5076509;28;20767;-64
2022/06/18 07:11:19;;;;;;;8.35;3.05;;;;;;;28.92;37.46;101159.91;5076443;28;20153;-62
2022/06/18 07:13:47;;;;;;;7.35;2.70;;;;;;;28.76;37.81;101144.34;5072002;28;20075;-63
2022/06/18 07:16:15;;;;;;;8.75;3.10;;;;;;;28.75;38.00;101141.91;5080470;28;20056;-64
2022/06/18 07:18:43;;;;;;;6.40;3.10;;;;;;;28.49;38.80;101151.16;5071206;28;20060;-64
2022/06/18 07:21:15;;;;;;;6.95;3.25;;;;;;;28.66;38.28;101145.28;5079297;28;20059;-63
2022/06/18 07:23:43;;;;;;;10.15;3.70;;;;;;;29.03;37.98;101147.16;5087361;28;20044;-64
2022/06/18 07:26:14;;;;;;;7.45;3.28;;;;;;;28.89;37.93;101149.44;5080177;28;20067;-63
2022/06/18 07:28:43;;;;;;;7.82;3.53;;;;;;;28.97;38.46;101151.72;5059172;28;20074;-64
2022/06/18 07:31:15;;;;;;;10.65;3.53;;;;;;;29.05;38.57;101141.06;5059910;28;20053;-63
2022/06/18 07:33:43;;;;;;;8.00;3.33;;;;;;;29.31;38.05;101132.53;5049983;28;20056;-63
2022/06/18 07:36:11;;;;;;;9.18;4.20;;;;;;;29.52;37.71;101132.19;5087304;28;20059;-64
2022/06/18 07:38:38;;;;;;;8.70;3.70;;;;;;;29.60;37.39;101130.03;5077892;28;20048;-64
2022/06/18 07:41:05;;;;;;;10.27;3.70;;;;;;;29.70;37.16;101132.69;5071111;28;20059;-64
2022/06/18 07:43:38;;;;;;;13.25;3.60;;;;;;;30.27;36.51;101126.72;5074371;28;20052;-65
2022/06/18 07:46:07;;;;;;;17.60;4.18;;;;;;;30.24;36.29;101133.28;5076957;28;20047;-66
2022/06/18 07:48:34;;;;;;;9.32;3.40;;;;;;;30.22;36.49;101132.88;5085216;28;20059;-64
2022/06/18 07:51:03;;;;;;;13.20;4.00;;;;;;;30.50;35.92;101123.78;5064935;28;20056;-65
2022/06/18 07:53:30;;;;;;;8.20;3.53;;;;;;;30.53;35.99;101130.66;5072482;28;20060;-65
2022/06/18 07:55:58;;;;;;;9.48;3.45;;;;;;;30.97;35.19;101120.69;5080736;28;20040;-64
2022/06/18 07:58:29;;;;;;;7.28;3.80;;;;;;;30.98;34.97;101116.63;5074563;28;20045;-66
2022/06/18 08:00:57;;;;;;;6.25;3.58;;;;;;;31.15;34.41;101109.69;5076846;28;20626;-69
2022/06/18 08:03:25;;;;;;;9.90;3.35;;;;;;;31.27;34.27;101114.66;5072861;28;20063;-67
2022/06/18 08:05:54;;;;;;;9.57;3.58;;;;;;;31.41;33.72;101114.34;5074082;28;20048;-68
2022/06/18 08:08:21;;;;;;;8.93;3.40;;;;;;;31.66;33.89;101105.94;5070276;28;20052;-67
2022/06/18 08:11:10;;;;;;;8.25;3.67;;;;;;;31.52;33.43;101112.03;5078677;28;20055;-67
2022/06/18 08:13:38;;;;;;;9.65;3.75;;;;;;;31.54;34.02;101113.16;5070553;28;20048;-67
2022/06/18 08:16:06;;;;;;;7.88;3.10;;;;;;;31.58;34.16;101105.31;5075006;28;20081;-68
2022/06/18 08:18:33;;;;;;;9.45;3.15;;;;;;;31.86;32.91;101087.47;5074661;28;20044;-68
2022/06/18 08:21:15;;;;;;;6.68;2.72;;;;;;;32.25;32.58;101086.34;5066118;28;20079;-70
2022/06/18 08:23:43;;;;;;;9.40;2.95;;;;;;;32.11;32.11;101083.91;5056226;28;20459;-67
2022/06/18 08:26:10;;;;;;;5.07;2.60;;;;;;;32.27;32.25;101083.03;5074119;28;20075;-68
2022/06/18 08:28:39;;;;;;;8.63;3.30;;;;;;;32.12;32.69;101081.84;5065808;28;20041;-69
2022/06/18 08:31:08;;;;;;;11.73;3.10;;;;;;;32.22;32.33;101072.97;5068283;28;20064;-72
2022/06/18 08:33:36;;;;;;;6.32;2.92;;;;;;;32.27;32.57;101083.84;5062153;28;20079;-67
2022/06/18 08:36:08;;;;;;;6.97;2.88;;;;;;;31.97;32.65;101081.47;5080861;28;20048;-67
2022/06/18 08:38:38;;;;;;;9.02;3.28;;;;;;;32.28;32.59;101081.78;5072804;28;20059;-69
2022/06/18 08:41:31;;;;;;;8.18;3.67;;;;;;;32.64;31.86;101080.25;5072157;28;20440;-69
2022/06/18 08:44:05;;;;;;;7.20;3.10;;;;;;;32.99;32.04;101072.63;5068983;28;20060;-69
2022/06/18 08:46:51;;;;;;;8.02;3.13;;;;;;;32.53;31.49;101073.31;5061144;28;20044;-68
2022/06/18 08:49:43;;;;;;;10.95;3.13;;;;;;;32.59;31.12;101065.75;5069458;28;20438;-68
2022/06/18 08:53:08;;;;;;;6.15;3.22;;;;;;;33.18;30.73;101051.56;5052447;28;20075;-68
2022/06/18 08:55:53;;;;;;;9.73;2.70;;;;;;;33.22;30.36;101048.59;5021908;28;20045;-68
2022/06/18 08:58:51;;;;;;;10.02;3.15;;;;;;;32.93;30.75;101048.78;5018133;28;20053;-68
2022/06/18 09:01:25;;;;;;;9.68;3.10;;;;;;;33.27;30.92;101048.03;5033672;28;20572;-67
2022/06/18 09:04:18;;;;;;;6.68;3.08;;;;;;;33.14;30.60;101047.25;5064597;28;20064;-68
2022/06/18 09:07:08;;;;;;;8.95;4.43;;;;;;;33.12;30.44;101039.16;5062599;28;20052;-68
2022/06/18 09:09:44;;;;;;;;;;;;;;;32.85;30.29;101044.53;5052536;28;20045;-67
2022/06/18 09:12:14;;;;;;;9.18;5.22;;;;;;;32.80;29.97;101034.50;5077918;28;19934;-67
2022/06/18 09:15:04;;;;;;;6.05;2.90;;;;;;;32.94;29.69;101027.53;5070756;28;20063;-67
2022/06/18 09:17:46;;;;;;;5.72;2.60;;;;;;;32.91;29.32;101026.38;5074452;28;20056;-67
2022/06/18 09:20:23;;;;;;;5.82;2.45;;;;;;;33.27;28.77;101019.50;5087528;28;20056;-69
2022/06/18 09:22:53;;;;;;;6.65;2.85;;;;;;;33.43;28.43;101007.88;5072247;28;20563;-69
2022/06/18 09:25:25;;;;;;;7.55;2.78;;;;;;;33.60;28.02;101015.81;5027884;28;20059;-69
2022/06/18 09:27:55;;;;;;;7.13;2.00;;;;;;;33.68;26.71;101013.50;5056487;28;20136;-68
2022/06/18 09:30:24;;;;;;;10.20;2.53;;;;;;;33.50;26.55;101013.34;5072037;28;20063;-70
2022/06/18 09:32:56;;;;;;;7.15;2.33;;;;;;;33.36;26.21;101013.84;5072838;28;20044;-70
2022/06/18 09:35:28;;;;;;;7.07;2.58;;;;;;;33.18;26.66;101013.69;5051414;28;20048;-69
2022/06/18 09:38:08;;;;;;;5.57;2.00;;;;;;;33.51;26.59;101006.41;5052107;28;20063;-70
2022/06/18 09:40:40;;;;;;;5.70;2.30;;;;;;;33.43;26.35;100999.28;5050435;28;20057;-70
2022/06/18 09:43:17;;;;;;;9.00;2.70;;;;;;;33.67;26.63;100997.59;5044449;28;20040;-71
2022/06/18 09:45:56;;;;;;;5.10;2.47;;;;;;;34.06;26.30;100994.91;5080259;28;20063;-72
2022/06/18 09:48:24;;;;;;;;;;;;;;;33.72;25.84;100983.53;5063278;28;20778;-76
2022/06/18 09:50:55;;;;;;;5.80;2.55;;;;;;;33.77;26.61;100987.84;5061735;28;19932;-71
2022/06/18 09:53:30;;;;;;;10.20;2.85;;;;;;;33.20;27.01;100988.31;5083148;28;20491;-71
2022/06/18 09:56:02;;;;;;;8.00;2.60;;;;;;;33.47;26.91;100980.81;5031392;28;20488;-70
2022/06/18 09:58:32;;;;;;;6.13;2.75;;;;;;;33.16;27.19;100981.94;5055350;28;20052;-70
2022/06/18 10:01:00;;;;;;;10.63;2.53;;;;;;;33.19;27.30;100969.59;5066593;28;20078;-70
2022/06/18 10:09:42;;;;;;;7.95;2.47;;;;;;;32.81;27.25;100958.25;5079485;28;20055;-71
2022/06/18 10:12:34;;;;;;;8.07;2.72;;;;;;;33.01;27.23;100956.75;5074089;28;20443;-70
2022/06/18 10:15:06;;;;;;;8.63;2.60;;;;;;;33.17;25.98;100946.41;5058812;28;20040;-71
2022/06/18 10:17:43;;;;;;;12.40;2.28;;;;;;;33.21;25.85;100941.38;5079785;28;20049;-71
2022/06/18 10:20:15;;;;;;;11.35;2.75;;;;;;;33.56;25.96;100948.66;5072285;28;20067;-71
2022/06/18 10:22:48;;;;;;;8.00;2.42;;;;;;;33.58;25.09;100941.19;5072136;28;20040;-70
2022/06/18 10:25:22;;;;;;;9.18;2.28;;;;;;;33.56;24.93;100937.22;5060374;28;20060;-70
2022/06/18 10:27:59;;;;;;;13.27;2.50;;;;;;;33.54;24.45;100931.97;5063771;28;20056;-70
2022/06/18 10:30:37;;;;;;;8.48;2.42;;;;;;;33.81;24.89;100934.19;5057106;28;20057;-71
2022/06/18 10:33:13;;;;;;;8.20;2.57;;;;;;;33.98;24.83;100927.03;5056382;28;20052;-70
2022/06/18 10:35:50;;;;;;;8.23;2.63;;;;;;;33.67;25.19;100937.59;5073325;28;20295;-71
2022/06/18 10:38:35;;;;;;;9.73;2.97;;;;;;;33.58;25.99;100926.13;5047553;28;20052;-70
2022/06/18 10:41:25;;;;;;;10.70;3.10;;;;;;;33.73;26.40;100927.16;5058645;28;20049;-70
2022/06/18 10:44:25;;;;;;;6.50;2.55;;;;;;;33.65;25.19;100914.44;5070547;28;20059;-71
2022/06/18 10:47:06;;;;;;;10.90;3.00;;;;;;;33.86;25.46;100913.59;5047418;28;20055;-70
2022/06/18 10:49:35;;;;;;;7.90;2.83;;;;;;;33.93;25.32;100911.28;5053073;28;20642;-72
2022/06/18 10:52:03;;;;;;;8.30;2.72;;;;;;;33.97;25.27;100908.28;5053523;28;20048;-72
2022/06/18 10:54:36;;;;;;;8.90;2.35;;;;;;;33.88;25.51;100902.47;5058543;28;20049;-71
2022/06/18 10:57:04;;;;;;;10.88;2.90;;;;;;;33.84;25.17;100899.75;5038820;28;20060;-70
2022/06/18 10:59:35;;;;;;;8.85;2.65;;;;;;;34.12;25.38;100900.75;5069798;28;20048;-72
2022/06/18 11:02:09;;;;;;;15.57;3.17;;;;;;;33.98;24.34;100887.78;5050067;28;20048;-72
2022/06/18 11:04:38;;;;;;;15.38;3.20;;;;;;;33.93;23.97;100890.44;5055407;28;20166;-72
2022/06/18 11:07:08;;;;;;;15.05;3.30;;;;;;;33.94;23.76;100886.34;5073328;28;20365;-72
2022/06/18 11:09:52;;;;;;;12.48;3.40;;;;;;;34.03;24.23;100883.53;5053803;28;20514;-70
2022/06/18 11:12:27;;;;;;;15.23;3.25;;;;;;;34.03;24.06;100872.09;5036621;28;20068;-73
2022/06/18 11:14:55;;;;;;;12.90;3.30;;;;;;;34.22;24.00;100878.66;5069172;28;20048;-70
2022/06/18 11:17:32;;;;;;;16.48;3.33;;;;;;;34.55;23.89;100874.00;5071252;28;20192;-71
2022/06/18 11:20:16;;;;;;;11.45;3.10;;;;;;;34.63;24.07;100864.66;5052763;28;20056;-71
2022/06/18 11:22:44;;;;;;;14.90;3.42;;;;;;;34.62;24.21;100863.06;5061197;28;20063;-74
2022/06/18 11:25:24;;;;;;;18.98;4.00;;;;;;;34.52;24.35;100854.94;5056198;28;20056;-70
2022/06/18 11:27:52;;;;;;;13.73;3.88;;;;;;;34.35;25.15;100857.25;5068431;28;20408;-71
2022/06/18 11:30:33;;;;;;;19.17;6.20;;;;;;;34.51;24.59;100859.88;5046096;28;20045;-71
2022/06/18 11:33:18;;;;;;;14.88;4.20;;;;;;;34.48;24.42;100846.50;5072649;28;20056;-70
2022/06/18 11:35:50;;;;;;;18.00;3.90;;;;;;;34.41;24.06;100846.78;5036730;28;20051;-72
2022/06/18 11:38:28;;;;;;;12.93;3.45;;;;;;;34.52;23.56;100827.09;5075209;28;20048;-72
2022/06/18 11:41:12;;;;;;;23.17;3.65;;;;;;;34.59;23.77;100832.53;5057709;28;20087;-71
2022/06/18 11:43:50;;;;;;;24.52;4.22;;;;;;;34.60;22.97;100834.13;5087252;28;20075;-71
2022/06/18 11:46:23;;;;;;;18.83;4.28;;;;;;;34.90;23.58;100821.75;5086696;28;20045;-71
2022/06/18 11:49:02;;;;;;;24.33;4.13;;;;;;;34.49;23.77;100813.75;5078041;28;20048;-71
2022/06/18 11:51:47;;;;;;;20.70;4.10;;;;;;;34.40;23.49;100815.78;5078280;28;20053;-72
2022/06/18 11:54:15;;;;;;;22.85;4.00;;;;;;;34.82;23.43;100811.88;5058426;28;20048;-72
2022/06/18 11:57:38;;;;;;;20.77;3.95;;;;;;;34.58;23.21;100804.38;5075267;28;20400;-72
2022/06/18 12:00:30;;;;;;;29.63;4.20;;;;;;;35.00;23.34;100799.63;5058914;28;20068;-72
2022/06/18 12:03:00;;;;;;;23.92;4.75;;;;;;;35.01;22.59;100799.16;5058759;28;20053;-72
2022/06/18 12:05:40;;;;;;;19.55;4.93;;;;;;;34.91;23.37;100793.88;5056928;28;20518;-72
2022/06/18 12:08:07;;;;;;;;;;;;;;;34.75;22.94;100792.16;5049940;28;20056;-73
2022/06/18 12:11:09;;;;;;;18.67;5.13;;;;;;;35.14;22.35;100781.78;5049269;28;19928;-73